Time;durP1;ratioP1;P1;durP2;ratioP2;P2;SDS_P1;SDS_P2;PMS_P1;PMS_P2;Temp;Humidity;BMP_temperature;BMP_pressure;BME280_temperature;BME280_humidity;BME280_pressure;Samples;Min_cycle;Max_cycle;Signal;HPM_P1;HPM_P2
2022/03/22 09:02:20;;;;;;;13.43;11.17;;;;;;;11.72;33.64;101650.50;4898346;27;208468;-59
2022/03/22 09:07:29;;;;;;;15.63;12.37;;;;;;;13.00;30.59;101648.38;5027374;28;20744;-59
2022/03/22 09:09:54;;;;;;;15.63;11.23;;;;;;;14.00;29.04;101650.28;5028701;28;20175;-58
2022/03/22 09:12:20;;;;;;;18.27;11.87;;;;;;;13.82;28.94;101645.03;5050893;28;20232;-57
2022/03/22 09:14:46;;;;;;;15.50;11.77;;;;;;;13.80;28.78;101652.00;5023819;28;20223;-59
2022/03/22 09:17:13;;;;;;;15.33;12.10;;;;;;;13.51;29.20;101648.09;5013895;28;20653;-59
2022/03/22 09:19:39;;;;;;;14.47;12.10;;;;;;;14.66;27.85;101647.31;5007376;28;20270;-57
2022/03/22 09:22:05;;;;;;;14.27;12.77;;;;;;;14.90;27.40;101649.66;5013024;28;20582;-58
2022/03/22 09:24:35;;;;;;;16.27;11.83;;;;;;;15.16;27.07;101642.38;5005887;28;20193;-57
2022/03/22 09:27:01;;;;;;;15.30;13.77;;;;;;;16.40;25.87;101636.03;5026211;28;20603;-57
2022/03/22 09:29:26;;;;;;;13.77;12.00;;;;;;;16.53;24.96;101643.97;5010215;28;20188;-57
2022/03/22 09:31:52;;;;;;;14.67;11.97;;;;;;;16.84;25.45;101637.91;5019889;28;20233;-58
2022/03/22 09:34:18;;;;;;;14.37;12.17;;;;;;;16.95;25.25;101637.31;5025635;28;20174;-57
2022/03/22 09:36:44;;;;;;;14.27;12.17;;;;;;;17.24;24.75;101640.00;5027512;28;20193;-60
2022/03/22 09:39:09;;;;;;;15.53;12.70;;;;;;;15.86;26.31;101639.72;5028259;28;20677;-57
2022/03/22 09:41:37;;;;;;;15.87;12.60;;;;;;;16.55;26.18;101632.56;5019988;28;20233;-56
2022/03/22 09:44:04;;;;;;;12.17;10.87;;;;;;;16.47;25.29;101637.34;5026106;28;20178;-58
2022/03/22 09:46:32;;;;;;;22.40;14.03;;;;;;;15.71;25.96;101641.31;5026553;28;20734;-57
2022/03/22 09:48:58;;;;;;;17.33;12.83;;;;;;;15.62;26.29;101644.41;5026634;28;20183;-59
2022/03/22 09:51:58;;;;;;;14.77;13.13;;;;;;;16.43;25.81;101631.50;4998260;28;20273;-58
2022/03/22 09:54:24;;;;;;;14.53;11.50;;;;;;;16.67;24.92;101640.59;5016902;28;20186;-57
2022/03/22 09:57:07;;;;;;;13.53;12.17;;;;;;;15.98;25.88;101633.06;5024225;28;20665;-57
2022/03/22 09:59:33;;;;;;;14.23;11.97;;;;;;;16.57;24.60;101633.34;5025722;28;20186;-58
2022/03/22 10:02:01;;;;;;;14.17;11.03;;;;;;;16.54;24.69;101630.91;5019700;28;20237;-58
2022/03/22 10:04:42;;;;;;;11.10;10.00;;;;;;;16.06;24.78;101627.44;5022315;28;20514;-57
2022/03/22 10:07:16;;;;;;;13.27;11.27;;;;;;;16.23;24.54;101632.56;5025067;28;20178;-58
2022/03/22 10:09:42;;;;;;;12.40;11.17;;;;;;;16.27;24.66;101628.91;5027064;28;20243;-57
2022/03/22 10:12:10;;;;;;;14.13;10.93;;;;;;;17.27;24.17;101611.22;5013214;28;20218;-57
2022/03/22 10:14:39;;;;;;;13.55;12.15;;;;;;;17.24;23.39;101625.25;5001756;28;20424;-57
2022/03/22 10:17:15;;;;;;;12.00;10.73;;;;;;;18.33;21.79;101621.34;5001292;28;20230;-58
2022/03/22 10:19:43;;;;;;;13.23;11.50;;;;;;;17.30;23.36;101613.63;5009508;28;20175;-57
2022/03/22 10:22:11;;;;;;;17.03;11.83;;;;;;;17.19;23.73;101616.88;4983406;28;20231;-58
2022/03/22 10:24:48;;;;;;;14.55;12.35;;;;;;;18.89;22.02;101610.81;4976423;28;20439;-60
2022/03/22 10:27:28;;;;;;;12.60;11.30;;;;;;;18.73;21.76;101618.81;4997521;28;20198;-59
2022/03/22 10:29:56;;;;;;;15.07;11.27;;;;;;;19.75;20.68;101617.25;5013317;28;20641;-59
2022/03/22 10:32:39;;;;;;;14.47;10.80;;;;;;;18.96;21.55;101612.09;5000417;28;20225;-59
2022/03/22 10:35:12;;;;;;;15.07;12.03;;;;;;;16.84;22.89;101617.09;5013030;28;20174;-58
2022/03/22 10:37:38;;;;;;;11.70;10.60;;;;;;;14.65;25.78;101617.16;5012089;28;20241;-57
2022/03/22 10:40:20;;;;;;;16.20;10.93;;;;;;;13.71;27.67;101613.63;5003476;28;20237;-59
2022/03/22 10:42:46;;;;;;;13.20;11.47;;;;;;;13.38;27.99;101619.31;5023744;28;20195;-58
2022/03/22 10:45:12;;;;;;;12.80;10.40;;;;;;;13.37;29.00;101612.44;5011039;28;20610;-57
2022/03/22 10:47:37;;;;;;;13.53;10.83;;;;;;;13.50;28.12;101611.03;5012552;28;20206;-57
2022/03/22 10:50:07;;;;;;;16.70;9.90;;;;;;;13.01;27.84;101615.63;5003295;28;20238;-60
2022/03/22 10:52:33;;;;;;;11.63;10.53;;;;;;;12.69;28.51;101610.00;4977779;28;20187;-58
2022/03/22 10:54:59;;;;;;;11.20;9.77;;;;;;;12.82;29.23;101602.63;5012670;28;20214;-66
2022/03/22 10:57:32;;;;;;;14.23;10.67;;;;;;;13.30;29.85;101603.28;5012199;28;20261;-65
2022/03/22 11:00:05;;;;;;;11.30;10.20;;;;;;;13.48;29.86;101605.13;5013131;28;20201;-65
2022/03/22 11:02:37;;;;;;;12.48;10.25;;;;;;;13.57;29.68;101603.88;4985096;28;20435;-65
2022/03/22 11:05:11;;;;;;;11.53;10.10;;;;;;;13.42;29.08;101600.22;5012936;28;20195;-64
2022/03/22 11:07:40;;;;;;;13.20;11.23;;;;;;;13.58;28.34;101604.72;5011310;28;20692;-64
2022/03/22 11:10:06;;;;;;;12.90;11.30;;;;;;;13.65;28.87;101603.53;4983584;28;20812;-64
2022/03/22 11:12:33;;;;;;;12.83;10.57;;;;;;;13.49;29.46;101604.19;5007314;28;20186;-66
2022/03/22 11:15:02;;;;;;;13.47;10.50;;;;;;;13.36;29.31;101603.03;4976761;28;20192;-65
2022/03/22 11:17:35;;;;;;;12.17;10.87;;;;;;;13.30;28.75;101593.78;4996005;28;20202;-66
2022/03/22 11:20:04;;;;;;;12.00;10.80;;;;;;;13.55;29.38;101596.16;5012102;28;20448;-64
2022/03/22 11:22:31;;;;;;;14.40;10.57;;;;;;;13.55;29.65;101595.34;4992041;28;20270;-66
2022/03/22 11:25:11;;;;;;;12.67;11.37;;;;;;;13.61;28.54;101589.09;4995802;28;20508;-66
2022/03/22 11:27:39;;;;;;;11.80;10.47;;;;;;;13.68;29.02;101578.41;5007390;28;20422;-64
2022/03/22 11:30:07;;;;;;;15.23;11.35;;;;;;;13.67;28.60;101584.47;4997021;28;20419;-64
2022/03/22 11:35:24;;;;;;;11.00;9.33;;;;;;;13.72;28.06;101574.75;5012250;28;20194;-65
2022/03/22 11:38:00;;;;;;;12.48;11.18;;;;;;;13.83;28.28;101583.78;5011054;28;20414;-65
2022/03/22 11:43:11;;;;;;;11.57;9.77;;;;;;;13.57;29.08;101562.53;5008060;28;20193;-67
2022/03/22 11:45:50;;;;;;;11.90;10.70;;;;;;;13.65;28.46;101568.16;5011183;28;20186;-66
2022/03/22 11:48:18;;;;;;;12.03;10.17;;;;;;;13.80;28.75;101573.59;5012789;28;20183;-63
2022/03/22 11:50:45;;;;;;;11.07;9.97;;;;;;;13.94;27.86;101560.88;4995192;28;20241;-65
2022/03/22 11:53:19;;;;;;;12.40;11.10;;;;;;;13.72;28.60;101573.94;4982020;28;20219;-65
2022/03/22 11:55:47;;;;;;;11.60;10.03;;;;;;;13.69;28.15;101564.56;4972097;28;20188;-66
2022/03/22 11:58:13;;;;;;;11.30;9.93;;;;;;;13.84;28.24;101559.59;4972468;28;20184;-65
2022/03/22 12:00:55;;;;;;;12.47;11.10;;;;;;;13.94;28.34;101557.44;4986529;28;20253;-67
2022/03/22 12:03:23;;;;;;;13.32;11.40;;;;;;;14.02;28.30;101552.75;4991677;28;20828;-68
2022/03/22 12:05:49;;;;;;;14.53;11.27;;;;;;;14.11;27.94;101557.50;5009476;28;20190;-66
2022/03/22 12:08:19;;;;;;;11.97;10.73;;;;;;;14.22;27.95;101554.41;4991313;28;20208;-66
2022/03/22 12:10:46;;;;;;;14.43;11.57;;;;;;;14.11;27.54;101549.72;4955334;28;20485;-66
2022/03/22 12:13:13;;;;;;;12.87;10.57;;;;;;;14.06;27.73;101546.53;4971025;28;20203;-64
2022/03/22 12:15:38;;;;;;;12.77;10.77;;;;;;;14.17;27.98;101546.03;4969579;28;20674;-65
2022/03/22 12:18:03;;;;;;;13.70;11.07;;;;;;;14.17;28.60;101544.28;4980008;28;20203;-66
2022/03/22 12:20:29;;;;;;;12.47;10.83;;;;;;;14.37;27.32;101539.91;4988250;28;20235;-64
2022/03/22 12:22:59;;;;;;;13.27;11.20;;;;;;;14.36;27.54;101533.06;5003456;28;20193;-67
2022/03/22 12:25:27;;;;;;;14.30;10.57;;;;;;;14.34;27.37;101533.13;5009893;28;20273;-65
2022/03/22 12:27:58;;;;;;;11.23;10.13;;;;;;;14.49;28.33;101530.75;5007449;28;20171;-66
2022/03/22 12:30:28;;;;;;;12.50;11.00;;;;;;;14.58;27.20;101525.09;4978952;28;20239;-65
2022/03/22 12:32:56;;;;;;;12.73;11.43;;;;;;;14.58;27.81;101526.84;4997000;28;20238;-68
2022/03/22 12:35:24;;;;;;;16.30;11.10;;;;;;;14.63;27.53;101524.88;4978908;28;20183;-64
2022/03/22 12:37:52;;;;;;;13.80;10.97;;;;;;;14.66;27.55;101516.97;5009527;28;20826;-66
2022/03/22 12:40:19;;;;;;;13.57;11.20;;;;;;;14.88;27.20;101521.13;5001771;28;20539;-65
2022/03/22 12:42:45;;;;;;;12.27;10.97;;;;;;;14.82;26.46;101507.56;5010782;28;20186;-65
2022/03/22 12:45:11;;;;;;;13.60;10.53;;;;;;;14.82;27.05;101512.75;5008961;28;20510;-65
2022/03/22 12:47:42;;;;;;;11.67;9.90;;;;;;;14.85;26.45;101509.97;5012078;28;20277;-66
2022/03/22 12:50:09;;;;;;;12.37;11.17;;;;;;;15.00;26.59;101503.19;4994041;28;20209;-65
2022/03/22 12:52:35;;;;;;;11.77;9.97;;;;;;;15.04;26.96;101496.09;5005678;28;20209;-68
2022/03/22 12:55:01;;;;;;;12.23;10.93;;;;;;;15.50;25.72;101500.63;5003543;28;20886;-64
2022/03/22 12:57:27;;;;;;;12.07;10.70;;;;;;;15.30;26.38;101494.75;5011429;28;20252;-64
2022/03/22 12:59:52;;;;;;;11.93;10.43;;;;;;;15.07;26.62;101490.78;5008084;28;20182;-65
2022/03/22 13:02:19;;;;;;;13.30;11.00;;;;;;;15.25;26.40;101486.38;4997807;28;20642;-65
2022/03/22 13:04:47;;;;;;;11.40;10.13;;;;;;;15.47;26.35;101477.47;5007640;28;20179;-65
2022/03/22 13:07:30;;;;;;;12.90;11.60;;;;;;;15.33;25.80;101478.19;4996222;28;20444;-56
2022/03/22 13:12:43;;;;;;;14.23;10.57;;;;;;;15.05;25.95;101478.81;4999683;28;20787;-56
2022/03/22 13:15:09;;;;;;;11.13;10.00;;;;;;;15.12;25.91;101487.91;5000403;28;20205;-57
2022/03/22 13:17:48;;;;;;;12.93;11.03;;;;;;;14.98;26.41;101479.13;5010732;28;20203;-59
2022/03/22 13:20:25;;;;;;;13.00;11.00;;;;;;;14.92;26.68;101478.56;4997843;28;20185;-57
2022/03/22 13:22:52;;;;;;;15.67;10.93;;;;;;;15.14;26.18;101476.59;4989335;28;20261;-57
2022/03/22 13:25:24;;;;;;;13.90;10.47;;;;;;;15.34;25.90;101469.50;4998516;28;20187;-57
2022/03/22 13:27:56;;;;;;;15.07;11.00;;;;;;;15.51;25.74;101462.59;5006738;28;20194;-59
2022/03/22 13:30:21;;;;;;;12.33;10.07;;;;;;;15.49;25.48;101468.69;4999291;28;20179;-58
2022/03/22 13:32:47;;;;;;;10.00;9.00;;;;;;;15.41;25.44;101463.06;5010414;28;20179;-57
2022/03/22 13:35:13;;;;;;;14.67;10.97;;;;;;;15.38;25.57;101460.66;5011193;28;20182;-57
2022/03/22 13:37:51;;;;;;;11.67;10.57;;;;;;;15.58;25.97;101456.13;5010163;28;20183;-57
2022/03/22 13:40:19;;;;;;;12.77;10.00;;;;;;;15.70;24.84;101457.22;5001189;28;20181;-56
2022/03/22 13:43:04;;;;;;;13.87;10.33;;;;;;;15.60;24.93;101456.91;5010311;28;20249;-58
2022/03/22 13:45:30;;;;;;;12.40;10.23;;;;;;;15.57;25.62;101449.28;5008960;28;20183;-59
2022/03/22 13:47:58;;;;;;;12.63;10.70;;;;;;;15.65;25.23;101453.16;5012380;28;20250;-58
2022/03/22 13:50:30;;;;;;;11.90;9.97;;;;;;;15.59;25.56;101452.63;4998265;28;20227;-58
2022/03/22 13:53:16;;;;;;;14.43;10.47;;;;;;;15.52;25.20;101443.50;5006444;28;20186;-57
2022/03/22 13:55:44;;;;;;;12.13;10.60;;;;;;;15.55;25.76;101444.16;5013113;28;20194;-58
2022/03/22 13:58:13;;;;;;;15.27;10.37;;;;;;;15.71;25.30;101441.59;5014106;28;20182;-59
2022/03/22 14:00:48;;;;;;;17.80;10.53;;;;;;;15.98;26.07;101428.03;5001595;28;20231;-58
2022/03/22 14:03:15;;;;;;;12.93;10.93;;;;;;;15.89;25.50;101434.59;4974552;28;20179;-58
2022/03/22 14:05:42;;;;;;;11.27;10.17;;;;;;;16.06;24.97;101431.06;4982083;28;20355;-58
2022/03/22 14:08:09;;;;;;;11.33;10.13;;;;;;;16.16;25.21;101428.75;4974452;28;20200;-58
2022/03/22 14:10:38;;;;;;;11.60;10.00;;;;;;;16.27;24.97;101434.19;4970331;28;20227;-60
2022/03/22 14:13:05;;;;;;;11.33;10.20;;;;;;;15.98;24.16;101430.63;4993591;28;20191;-59
2022/03/22 14:15:32;;;;;;;11.27;9.97;;;;;;;15.82;24.02;101426.28;4994841;28;20176;-57
2022/03/22 14:17:58;;;;;;;11.75;9.50;;;;;;;15.89;25.32;101428.53;4994415;28;20424;-66
2022/03/22 14:20:24;;;;;;;11.23;9.83;;;;;;;16.14;24.53;101425.41;4985014;28;20236;-57
2022/03/22 14:22:53;;;;;;;10.60;9.60;;;;;;;16.36;24.22;101421.56;4998804;28;20194;-63
2022/03/22 14:25:20;;;;;;;10.73;9.63;;;;;;;16.32;25.17;101418.31;5013508;28;20193;-57
2022/03/22 14:27:48;;;;;;;12.47;10.47;;;;;;;16.48;24.20;101423.47;5012665;28;20191;-58
2022/03/22 14:30:17;;;;;;;10.37;9.20;;;;;;;16.26;24.01;101418.66;5000553;28;20197;-60
2022/03/22 14:32:50;;;;;;;12.17;8.57;;;;;;;16.33;23.28;101413.97;5012513;28;20209;-58
2022/03/22 14:38:01;;;;;;;13.40;8.77;;;;;;;16.48;23.10;101407.88;5013638;28;20334;-57
2022/03/22 14:40:28;;;;;;;9.20;8.13;;;;;;;16.50;23.23;101407.81;5002458;28;20234;-58
2022/03/22 14:42:57;;;;;;;14.30;8.03;;;;;;;16.58;23.51;101401.22;4999705;28;20209;-66
2022/03/22 14:45:27;;;;;;;10.47;8.30;;;;;;;16.45;22.91;101403.69;5014226;28;20181;-58
2022/03/22 14:47:53;;;;;;;13.67;8.37;;;;;;;16.55;22.50;101404.00;5010200;28;20280;-58
2022/03/22 14:50:21;;;;;;;9.73;8.60;;;;;;;16.52;22.71;101403.34;4995474;28;20181;-57
2022/03/22 14:55:35;;;;;;;9.77;7.77;;;;;;;16.85;23.07;101395.28;5010470;28;20229;-59
2022/03/22 15:00:45;;;;;;;12.33;8.83;;;;;;;16.56;22.94;101394.44;5000137;28;20392;-58
2022/03/22 15:03:12;;;;;;;9.23;8.33;;;;;;;16.71;23.64;101392.72;4988275;28;20262;-59
2022/03/22 15:05:50;;;;;;;10.00;8.27;;;;;;;16.56;22.50;101387.50;4974182;28;20191;-58
2022/03/22 15:08:16;;;;;;;12.37;8.67;;;;;;;16.64;23.69;101375.81;4981332;28;20187;-58
2022/03/22 15:10:43;;;;;;;17.67;11.90;;;;;;;16.67;23.18;101379.06;4983775;28;20226;-58
2022/03/22 15:13:12;;;;;;;9.70;8.60;;;;;;;16.79;23.13;101377.47;4985917;28;20205;-57
2022/03/22 15:15:38;;;;;;;9.73;8.43;;;;;;;16.71;22.36;101374.53;5012557;28;20183;-58
2022/03/22 15:18:07;;;;;;;8.93;8.03;;;;;;;16.66;22.74;101372.19;5011994;28;20222;-59
2022/03/22 15:20:34;;;;;;;9.90;8.87;;;;;;;16.75;23.56;101374.22;4998424;28;20317;-58
2022/03/22 15:23:04;;;;;;;11.03;8.37;;;;;;;16.89;23.86;101365.63;4985659;28;20183;-59
2022/03/22 15:25:30;;;;;;;9.43;8.10;;;;;;;16.93;22.98;101368.88;5007234;28;20183;-58
2022/03/22 15:27:55;;;;;;;10.30;8.43;;;;;;;16.86;23.25;101365.78;5005197;28;20175;-59
2022/03/22 15:30:21;;;;;;;10.03;8.63;;;;;;;16.80;22.56;101362.75;5001512;28;20674;-58
2022/03/22 15:32:47;;;;;;;10.03;7.67;;;;;;;16.81;22.71;101357.44;5012578;28;20179;-60
2022/03/22 15:35:20;;;;;;;10.00;8.37;;;;;;;16.77;22.65;101354.19;5010164;28;20187;-59
2022/03/22 15:37:48;;;;;;;10.20;7.87;;;;;;;16.92;22.51;101355.03;5013517;28;20276;-59
2022/03/22 15:40:14;;;;;;;10.83;8.17;;;;;;;16.74;23.02;101348.34;5003006;28;20269;-59
2022/03/22 15:42:43;;;;;;;9.97;7.73;;;;;;;16.89;23.38;101343.97;4997203;28;20209;-59
2022/03/22 15:45:13;;;;;;;10.77;8.13;;;;;;;16.68;23.14;101346.13;5011305;28;20186;-60
2022/03/22 15:47:41;;;;;;;9.63;8.23;;;;;;;16.84;22.85;101341.66;5013370;28;20185;-58
2022/03/22 15:50:12;;;;;;;9.30;7.80;;;;;;;16.72;23.45;101342.41;4995864;28;20214;-58
2022/03/22 15:52:39;;;;;;;9.93;7.70;;;;;;;16.61;23.00;101337.88;4987295;28;20176;-58
2022/03/22 15:55:10;;;;;;;9.10;8.00;;;;;;;16.46;23.47;101340.44;4972229;28;20270;-60
2022/03/22 15:57:36;;;;;;;13.53;8.87;;;;;;;16.51;23.92;101341.94;4972374;28;20283;-58
2022/03/22 16:00:06;;;;;;;14.33;8.10;;;;;;;16.48;23.00;101335.16;4981762;28;20215;-59
2022/03/22 16:02:31;;;;;;;8.93;7.80;;;;;;;16.51;23.12;101332.38;4972679;28;20265;-59
2022/03/22 16:04:56;;;;;;;12.23;8.10;;;;;;;16.38;23.04;101334.03;5010831;28;20646;-60
2022/03/22 16:07:23;;;;;;;12.63;8.37;;;;;;;16.56;23.25;101338.13;5011802;28;20186;-59
2022/03/22 16:09:48;;;;;;;9.00;8.10;;;;;;;16.39;23.96;101333.13;5009928;28;20269;-59
2022/03/22 16:12:13;;;;;;;10.23;8.53;;;;;;;16.57;24.52;101325.97;5000375;28;20314;-59
2022/03/22 16:14:39;;;;;;;8.90;8.00;;;;;;;16.43;24.44;101334.59;5007215;28;20183;-60
2022/03/22 16:17:05;;;;;;;14.53;8.50;;;;;;;16.43;24.30;101329.41;4972719;28;20725;-60
2022/03/22 16:19:31;;;;;;;9.40;7.90;;;;;;;16.43;24.45;101334.59;5005477;28;20617;-60
2022/03/22 16:21:57;;;;;;;10.43;9.33;;;;;;;16.77;23.95;101333.41;4992966;28;20448;-60
2022/03/22 16:24:22;;;;;;;9.70;8.53;;;;;;;16.71;24.27;101327.75;4992253;28;20651;-58
2022/03/22 16:26:47;;;;;;;9.83;8.83;;;;;;;16.28;23.70;101331.16;4992698;28;20179;-59
2022/03/22 16:29:18;;;;;;;9.87;8.87;;;;;;;16.25;24.30;101332.19;4991383;28;20579;-58
2022/03/22 16:31:49;;;;;;;10.27;8.10;;;;;;;16.18;24.48;101330.84;4948610;28;20630;-59
2022/03/22 16:37:09;;;;;;;9.63;8.40;;;;;;;16.05;24.34;101332.50;5011778;28;20198;-58
2022/03/22 16:39:38;;;;;;;12.17;8.77;;;;;;;16.07;24.97;101339.25;5008622;28;20545;-59
2022/03/22 16:42:12;;;;;;;10.23;8.07;;;;;;;16.12;25.07;101336.41;4999845;28;20229;-59
2022/03/22 16:44:42;;;;;;;9.40;8.20;;;;;;;16.09;25.14;101334.81;5004316;28;20217;-58
2022/03/22 16:47:12;;;;;;;12.57;9.37;;;;;;;15.94;25.52;101343.50;5009663;28;20202;-59
2022/03/22 16:49:40;;;;;;;9.43;8.43;;;;;;;15.94;25.13;101340.91;5009882;28;20222;-59
2022/03/22 16:52:07;;;;;;;10.40;9.30;;;;;;;16.08;25.11;101340.13;4976914;28;20940;-59
2022/03/22 16:54:33;;;;;;;9.77;8.80;;;;;;;16.01;25.37;101346.56;5006969;28;20191;-58
2022/03/22 16:57:00;;;;;;;10.38;9.23;;;;;;;16.05;26.20;101342.88;5004467;28;20428;-60
2022/03/22 16:59:25;;;;;;;10.03;8.90;;;;;;;15.84;26.24;101348.38;4997153;28;20291;-59
2022/03/22 17:01:51;;;;;;;10.57;9.50;;;;;;;15.65;26.44;101344.22;4996608;28;20234;-59
2022/03/22 17:04:20;;;;;;;11.20;10.10;;;;;;;15.46;27.39;101346.16;5010812;28;20269;-59
2022/03/22 17:06:46;;;;;;;11.17;9.97;;;;;;;15.37;27.26;101347.50;5011635;28;20254;-58
2022/03/22 17:09:11;;;;;;;12.50;9.90;;;;;;;15.30;27.86;101359.94;5012111;28;20757;-59
2022/03/22 17:11:37;;;;;;;13.33;11.20;;;;;;;15.24;27.47;101355.09;4990773;28;20280;-58
2022/03/22 17:14:03;;;;;;;11.10;9.83;;;;;;;15.16;28.65;101349.50;5010954;28;20194;-59
2022/03/22 17:16:32;;;;;;;10.73;9.07;;;;;;;14.97;28.65;101358.25;5010338;28;20183;-59
2022/03/22 17:19:00;;;;;;;11.07;9.20;;;;;;;14.85;28.60;101354.53;5011828;28;20174;-59
2022/03/22 17:21:28;;;;;;;15.77;9.43;;;;;;;14.77;29.05;101350.69;4999943;28;20231;-59
2022/03/22 17:23:53;;;;;;;12.87;9.53;;;;;;;14.60;29.32;101361.88;4990028;28;20278;-57
2022/03/22 17:26:21;;;;;;;14.40;10.20;;;;;;;14.57;29.18;101362.88;4996542;28;20318;-58
2022/03/22 17:28:51;;;;;;;13.73;10.17;;;;;;;14.53;29.54;101361.38;4996317;28;20175;-58
2022/03/22 17:31:20;;;;;;;15.13;11.07;;;;;;;14.25;30.17;101361.91;4978457;28;20318;-59
2022/03/22 17:33:48;;;;;;;11.07;9.83;;;;;;;14.00;31.05;101363.13;4995385;28;20183;-58
2022/03/22 17:36:15;;;;;;;13.63;9.40;;;;;;;13.76;31.75;101363.41;5011188;28;20693;-57
2022/03/22 17:38:41;;;;;;;16.57;11.03;;;;;;;13.60;32.19;101373.63;4996097;28;20645;-56
2022/03/22 17:41:11;;;;;;;14.17;11.40;;;;;;;13.51;32.20;101361.97;4985318;28;20773;-57
2022/03/22 17:43:48;;;;;;;15.57;11.27;;;;;;;13.39;32.55;101367.72;4987808;28;20238;-57
2022/03/22 17:46:14;;;;;;;13.50;11.23;;;;;;;13.29;32.84;101367.28;4994518;28;20175;-57
2022/03/22 17:48:41;;;;;;;14.33;11.47;;;;;;;13.18;33.21;101361.75;4994770;28;20699;-57
2022/03/22 17:51:07;;;;;;;13.23;10.90;;;;;;;13.12;33.41;101367.19;4979062;28;20230;-57
2022/03/22 17:53:33;;;;;;;16.73;11.17;;;;;;;12.99;33.57;101365.16;4987100;28;20198;-56
2022/03/22 17:56:00;;;;;;;18.73;11.53;;;;;;;12.82;34.10;101365.91;4995137;28;20187;-56
2022/03/22 17:58:27;;;;;;;14.17;11.03;;;;;;;12.74;34.29;101365.41;4994228;28;20179;-57
2022/03/22 18:00:54;;;;;;;15.30;11.63;;;;;;;12.61;34.83;101372.84;4979687;28;20242;-57
2022/03/22 18:03:21;;;;;;;15.43;10.97;;;;;;;12.42;35.19;101378.78;4994867;28;20230;-59
2022/03/22 18:05:49;;;;;;;18.50;11.87;;;;;;;12.37;35.95;101370.38;4994336;28;20613;-57
2022/03/22 18:08:19;;;;;;;21.00;11.70;;;;;;;12.09;36.84;101376.69;4995547;28;20180;-58
2022/03/22 18:10:45;;;;;;;17.07;11.17;;;;;;;12.10;36.86;101380.94;4981424;28;20238;-57
2022/03/22 18:13:11;;;;;;;17.30;11.33;;;;;;;11.83;36.76;101377.69;4983573;28;20175;-57
2022/03/22 18:15:37;;;;;;;19.10;11.87;;;;;;;11.60;38.31;101382.00;4994167;28;20184;-58
2022/03/22 18:18:03;;;;;;;17.87;10.53;;;;;;;11.33;39.69;101383.06;4993957;28;20290;-57
2022/03/22 18:20:29;;;;;;;13.97;11.40;;;;;;;11.26;39.68;101385.88;4982970;28;20227;-57
2022/03/22 18:22:54;;;;;;;13.93;11.23;;;;;;;11.11;39.06;101383.84;4986634;28;20180;-59
2022/03/22 18:25:20;;;;;;;20.03;12.30;;;;;;;11.08;39.27;101386.53;4975417;28;20219;-58
2022/03/22 18:27:46;;;;;;;14.00;11.13;;;;;;;10.92;40.73;101388.81;4974071;28;20203;-58
2022/03/22 18:30:13;;;;;;;13.50;10.63;;;;;;;10.91;40.82;101385.38;4949014;28;20223;-58
2022/03/22 18:32:39;;;;;;;13.90;10.67;;;;;;;10.78;41.63;101391.88;4974027;28;20284;-58
2022/03/22 18:35:09;;;;;;;20.60;12.33;;;;;;;10.64;42.02;101387.19;4973386;28;20789;-58
2022/03/22 18:37:35;;;;;;;14.53;11.37;;;;;;;10.61;42.76;101395.03;4975509;28;20267;-60
2022/03/22 18:40:01;;;;;;;15.00;10.73;;;;;;;10.34;43.45;101388.16;4975080;28;20307;-60
2022/03/22 18:42:27;;;;;;;25.73;11.60;;;;;;;10.33;43.36;101401.88;4964101;28;20366;-60
2022/03/22 18:44:53;;;;;;;13.17;10.97;;;;;;;10.07;44.25;101397.59;4973409;28;20488;-58
2022/03/22 18:47:19;;;;;;;11.77;10.57;;;;;;;10.14;44.46;101393.09;4975122;28;20176;-58
2022/03/22 18:49:46;;;;;;;18.57;11.97;;;;;;;10.15;43.95;101397.34;4973540;28;20188;-59
2022/03/22 18:52:12;;;;;;;15.87;11.13;;;;;;;10.06;44.29;101405.34;4965760;28;20527;-58
2022/03/22 18:54:39;;;;;;;18.27;11.13;;;;;;;9.92;44.56;101395.47;4989859;28;20187;-59
2022/03/22 18:57:05;;;;;;;15.53;11.40;;;;;;;9.91;44.74;101407.50;4992926;28;20631;-60
2022/03/22 18:59:30;;;;;;;22.80;12.27;;;;;;;9.78;45.10;101399.31;4994532;28;20212;-59
2022/03/22 19:01:56;;;;;;;12.80;10.73;;;;;;;9.69;45.47;101404.75;4997813;28;20318;-59
2022/03/22 19:04:22;;;;;;;22.60;12.57;;;;;;;9.47;46.33;101405.38;4992511;28;20186;-58
2022/03/22 19:06:49;;;;;;;25.37;14.07;;;;;;;9.28;47.21;101410.19;4994483;28;20191;-58
2022/03/22 19:09:14;;;;;;;20.73;14.83;;;;;;;9.34;47.22;101404.88;4994030;28;20309;-58
2022/03/22 19:11:40;;;;;;;32.47;18.50;;;;;;;9.12;48.39;101402.06;4996485;28;20325;-59
2022/03/22 19:14:05;;;;;;;25.17;16.83;;;;;;;9.13;48.43;101408.91;4992329;28;20536;-58
2022/03/22 19:19:14;;;;;;;23.13;15.60;;;;;;;8.89;49.48;101418.09;4994262;28;20236;-58
2022/03/22 19:21:40;;;;;;;26.57;14.57;;;;;;;8.79;50.04;101409.78;4996083;28;20317;-58
2022/03/22 19:24:07;;;;;;;21.17;13.27;;;;;;;8.63;50.31;101414.47;4991663;28;20183;-59
2022/03/22 19:26:34;;;;;;;18.13;14.13;;;;;;;8.46;50.22;101407.22;4992681;28;20179;-58
2022/03/22 19:28:59;;;;;;;20.07;14.23;;;;;;;8.40;50.00;101415.03;4992623;28;20185;-57
2022/03/22 19:34:09;;;;;;;19.33;14.50;;;;;;;8.14;51.31;101410.53;4992905;28;20277;-56
2022/03/22 19:36:35;;;;;;;23.23;13.97;;;;;;;8.14;50.97;101410.53;4993652;28;20333;-61
2022/03/22 19:39:01;;;;;;;20.97;14.17;;;;;;;8.09;51.06;101410.63;4992617;28;20277;-57
2022/03/22 19:41:27;;;;;;;19.30;13.63;;;;;;;8.13;51.79;101411.41;4973725;28;20242;-58
2022/03/22 19:43:53;;;;;;;27.53;15.57;;;;;;;8.07;52.25;101409.81;4986852;28;20283;-59
2022/03/22 19:46:18;;;;;;;21.30;16.17;;;;;;;7.90;53.74;101412.75;4992829;28;20330;-58
2022/03/22 19:48:43;;;;;;;24.07;15.87;;;;;;;7.80;53.95;101411.28;4993514;28;20178;-56
2022/03/22 19:51:09;;;;;;;23.33;15.37;;;;;;;7.92;53.72;101413.56;4982342;28;20248;-57
2022/03/22 19:53:35;;;;;;;28.70;16.00;;;;;;;7.87;53.56;101411.09;4992200;28;20221;-57
2022/03/22 19:56:05;;;;;;;26.87;19.23;;;;;;;7.81;53.51;101418.09;4993122;28;20174;-57
2022/03/22 19:58:31;;;;;;;23.97;17.27;;;;;;;7.71;54.53;101413.16;4991939;28;20183;-58
2022/03/22 20:00:58;;;;;;;24.43;16.20;;;;;;;7.74;54.39;101415.66;4979856;28;20238;-58
2022/03/22 20:03:23;;;;;;;22.30;16.73;;;;;;;7.57;55.32;101418.56;5001087;28;20243;-57
2022/03/22 20:05:49;;;;;;;22.27;16.67;;;;;;;7.53;55.68;101422.06;4993217;28;20634;-57
2022/03/22 20:08:15;;;;;;;26.07;17.27;;;;;;;7.45;55.79;101413.69;4993093;28;20195;-57
2022/03/22 20:10:41;;;;;;;24.37;16.63;;;;;;;7.29;56.61;101425.13;4984741;28;20248;-57
2022/03/22 20:13:09;;;;;;;25.53;16.37;;;;;;;7.17;57.70;101421.94;5002779;28;20656;-56
2022/03/22 20:15:35;;;;;;;24.93;17.23;;;;;;;7.21;57.68;101428.66;4984727;28;20235;-57
2022/03/22 20:18:07;;;;;;;30.23;17.77;;;;;;;7.09;58.61;101429.75;4991129;28;20241;-57
2022/03/22 20:20:33;;;;;;;23.47;17.37;;;;;;;7.21;58.45;101433.78;4984369;28;20325;-57
2022/03/22 20:22:59;;;;;;;25.70;16.90;;;;;;;7.11;59.11;101427.16;4990887;28;20185;-58
2022/03/22 20:25:25;;;;;;;31.63;18.87;;;;;;;7.18;59.01;101431.31;4991518;28;20278;-58
2022/03/22 20:27:53;;;;;;;31.60;20.97;;;;;;;7.09;59.18;101429.75;4992107;28;20177;-60
2022/03/22 20:30:20;;;;;;;28.87;19.00;;;;;;;6.98;60.16;101434.22;4960765;28;20553;-57
2022/03/22 20:32:46;;;;;;;27.63;18.43;;;;;;;7.03;59.34;101426.47;4964933;28;20632;-57
2022/03/22 20:35:14;;;;;;;28.37;18.63;;;;;;;6.98;58.96;101429.09;4991834;28;20201;-59
2022/03/22 20:37:42;;;;;;;23.17;15.97;;;;;;;6.85;59.21;101431.03;4991881;28;20261;-58
2022/03/22 20:40:12;;;;;;;25.97;16.93;;;;;;;6.77;58.79;101436.28;4977698;28;20210;-58
2022/03/22 20:42:40;;;;;;;26.97;17.33;;;;;;;6.84;58.60;101433.63;4990760;28;20206;-57
2022/03/22 20:45:12;;;;;;;40.77;24.97;;;;;;;6.75;58.77;101437.19;4991221;28;20662;-58
2022/03/22 20:47:37;;;;;;;24.47;16.17;;;;;;;6.53;59.98;101432.44;4989733;28;20202;-57